createdAt,value
2018-10-17T00:00:24.162Z,17.20
2018-10-17T00:02:51.128Z,21.00
2018-10-17T00:05:21.199Z,15.27
2018-10-17T00:07:48.126Z,17.63
2018-10-17T00:10:15.090Z,16.50
2018-10-17T00:12:42.094Z,18.60
2018-10-17T00:15:10.963Z,21.87
2018-10-17T00:17:38.866Z,16.87
2018-10-17T00:20:06.799Z,20.73
2018-10-17T00:22:35.671Z,22.17
2018-10-17T00:25:02.624Z,24.30
2018-10-17T00:27:29.518Z,19.50
2018-10-17T00:29:56.486Z,22.00
2018-10-17T00:32:23.475Z,18.27
2018-10-17T00:34:50.441Z,20.10
2018-10-17T00:37:25.819Z,17.80
2018-10-17T00:39:53.722Z,18.50
2018-10-17T00:42:21.736Z,18.13
2018-10-17T00:44:48.582Z,23.03
2018-10-17T00:47:15.632Z,17.97
2018-10-17T00:49:42.501Z,18.00
2018-10-17T00:52:09.490Z,19.60
2018-10-17T00:54:36.496Z,17.97
2018-10-17T00:57:04.425Z,18.30
2018-10-17T00:59:31.299Z,24.73
2018-10-17T01:01:59.186Z,21.70
2018-10-17T01:04:30.632Z,16.53
2018-10-17T01:06:57.546Z,20.60
2018-10-17T01:09:24.518Z,17.00
2018-10-17T01:11:51.479Z,19.50
2018-10-17T01:14:18.446Z,17.50
2018-10-17T01:16:46.364Z,17.37
2018-10-17T01:19:13.390Z,15.73
2018-10-17T01:21:40.296Z,18.07
2018-10-17T01:24:07.250Z,19.30
2018-10-17T01:26:34.122Z,16.40
2018-10-17T01:29:01.025Z,15.40
2018-10-17T01:31:27.991Z,18.40
2018-10-17T01:33:56.886Z,17.83
2018-10-17T01:36:23.870Z,18.20
2018-10-17T01:38:50.817Z,19.63
2018-10-17T01:41:18.819Z,18.57
2018-10-17T01:43:45.586Z,20.23
2018-10-17T01:46:15.619Z,18.93
2018-10-17T01:48:43.517Z,24.87
2018-10-17T01:51:10.414Z,19.00
2018-10-17T01:53:37.376Z,18.30
2018-10-17T01:56:04.682Z,17.90
2018-10-17T01:58:31.551Z,16.67
2018-10-17T02:00:59.515Z,18.70
2018-10-17T02:03:26.474Z,21.63
2018-10-17T02:05:53.484Z,15.63
2018-10-17T02:08:21.719Z,16.33
2018-10-17T02:13:47.123Z,16.23
2018-10-17T02:16:17.666Z,19.37
2018-10-17T02:18:44.641Z,18.37
2018-10-17T02:21:13.523Z,16.33
2018-10-17T02:23:47.977Z,14.60
2018-10-17T02:26:14.994Z,17.67
2018-10-17T02:28:43.849Z,17.10
2018-10-17T02:31:10.841Z,15.73
2018-10-17T02:33:37.750Z,18.00
2018-10-17T02:36:08.090Z,15.07
2018-10-17T02:38:45.001Z,17.20
2018-10-17T02:41:26.139Z,15.03
2018-10-17T02:43:58.406Z,17.40
2018-10-17T02:46:25.258Z,17.30
2018-10-17T02:48:52.125Z,15.17
2018-10-17T02:51:18.971Z,16.17
2018-10-17T02:53:45.847Z,14.70
2018-10-17T02:56:12.725Z,14.97
2018-10-17T02:58:39.581Z,17.50
2018-10-17T03:01:06.516Z,19.37
2018-10-17T03:03:33.299Z,20.77
2018-10-17T03:06:00.185Z,21.17
2018-10-17T03:08:34.279Z,16.93
2018-10-17T03:11:01.165Z,16.57
2018-10-17T03:13:27.992Z,15.70
2018-10-17T03:15:54.830Z,15.60
2018-10-17T03:18:21.684Z,15.07
2018-10-17T03:20:48.541Z,18.53
2018-10-17T03:23:15.429Z,17.55
2018-10-17T03:25:42.214Z,16.13
2018-10-17T03:28:09.085Z,15.30
2018-10-17T03:30:35.916Z,16.97
2018-10-17T03:33:02.758Z,17.90
2018-10-17T03:35:29.651Z,21.10
2018-10-17T03:37:56.507Z,21.62
2018-10-17T03:40:23.371Z,20.77
2018-10-17T03:42:50.223Z,19.77
2018-10-17T03:45:17.072Z,19.90
2018-10-17T03:47:43.896Z,19.13
2018-10-17T03:50:10.743Z,16.63
2018-10-17T03:52:37.606Z,19.70
2018-10-17T03:55:04.565Z,24.87
2018-10-17T03:57:31.386Z,16.63
2018-10-17T03:59:58.227Z,16.00
2018-10-17T04:02:25.069Z,21.90
2018-10-17T04:04:51.989Z,16.43
2018-10-17T04:07:18.924Z,19.67
2018-10-17T04:09:45.751Z,17.77
2018-10-17T04:12:12.682Z,21.23
2018-10-17T04:14:39.623Z,18.73
2018-10-17T04:17:06.523Z,16.30
2018-10-17T04:19:33.315Z,19.37
2018-10-17T04:22:00.270Z,15.73
2018-10-17T04:24:27.191Z,17.97
2018-10-17T04:26:54.039Z,21.47
2018-10-17T04:29:20.990Z,18.13
2018-10-17T04:31:47.927Z,14.93
2018-10-17T04:34:14.893Z,16.43
2018-10-17T04:36:41.819Z,17.10
2018-10-17T04:39:10.087Z,15.87
2018-10-17T04:41:36.942Z,17.00
2018-10-17T04:44:04.566Z,14.53
2018-10-17T04:46:31.443Z,16.30
2018-10-17T04:48:58.482Z,15.37
2018-10-17T04:51:25.467Z,17.07
2018-10-17T04:53:52.386Z,16.33
2018-10-17T04:56:19.326Z,16.87
2018-10-17T04:58:46.168Z,16.40
2018-10-17T05:01:13.170Z,16.63
2018-10-17T05:03:39.971Z,13.67
2018-10-17T05:06:06.808Z,17.40
2018-10-17T05:08:33.656Z,19.93
2018-10-17T05:11:00.556Z,16.60
2018-10-17T05:13:27.571Z,18.50
2018-10-17T05:15:54.417Z,15.40
2018-10-17T05:18:21.263Z,21.60
2018-10-17T05:20:48.099Z,16.73
2018-10-17T05:23:15.024Z,17.50
2018-10-17T05:25:41.794Z,20.10
2018-10-17T05:28:08.635Z,20.67
2018-10-17T05:30:35.737Z,19.50
2018-10-17T05:33:02.582Z,21.65
2018-10-17T05:35:29.427Z,17.07
2018-10-17T05:37:56.347Z,19.63
2018-10-17T05:40:23.126Z,21.33
2018-10-17T05:42:49.974Z,20.83
2018-10-17T05:45:16.828Z,18.53
2018-10-17T05:47:43.670Z,19.93
2018-10-17T05:50:10.514Z,21.17
2018-10-17T05:52:37.397Z,20.00
2018-10-17T05:55:04.581Z,40.53
2018-10-17T05:57:31.370Z,23.10
2018-10-17T05:59:58.320Z,24.00
2018-10-17T06:02:28.408Z,24.73
2018-10-17T06:04:55.372Z,25.23
2018-10-17T06:07:22.275Z,28.47
2018-10-17T06:09:49.228Z,22.27
2018-10-17T06:12:16.374Z,20.70
2018-10-17T06:14:43.302Z,17.63
2018-10-17T06:17:10.277Z,18.73
2018-10-17T06:19:37.191Z,22.17
2018-10-17T06:22:04.174Z,17.07
2018-10-17T06:24:31.067Z,19.57
2018-10-17T06:26:57.923Z,20.10
2018-10-17T06:29:24.766Z,22.30
2018-10-17T06:31:51.727Z,19.00
2018-10-17T06:34:18.673Z,23.97
2018-10-17T06:36:45.507Z,27.80
2018-10-17T06:39:12.455Z,31.03
2018-10-17T06:41:39.486Z,46.43
2018-10-17T06:44:06.820Z,44.23
2018-10-17T06:46:33.593Z,53.73
2018-10-17T06:49:00.439Z,39.40
2018-10-17T06:51:27.284Z,42.70
2018-10-17T06:53:54.203Z,40.80
2018-10-17T06:56:20.958Z,41.23
2018-10-17T06:58:47.794Z,44.70
2018-10-17T07:01:14.726Z,42.90
2018-10-17T07:03:41.503Z,48.40
2018-10-17T07:06:08.346Z,41.17
2018-10-17T07:08:35.271Z,43.27
2018-10-17T07:11:02.200Z,45.20
2018-10-17T07:13:29.055Z,57.53
2018-10-17T07:15:55.994Z,38.73
2018-10-17T07:18:22.845Z,38.60
2018-10-17T07:20:49.682Z,34.93
2018-10-17T07:23:16.607Z,31.30
2018-10-17T07:25:43.349Z,30.37
2018-10-17T07:28:10.172Z,28.07
2018-10-17T07:30:37.027Z,32.33
2018-10-17T07:33:03.981Z,29.03
2018-10-17T07:35:30.880Z,27.47
2018-10-17T07:37:57.650Z,31.33
2018-10-17T07:40:24.474Z,28.77
2018-10-17T07:42:51.320Z,32.70
2018-10-17T07:45:18.157Z,33.77
2018-10-17T07:47:45.147Z,42.17
2018-10-17T07:50:12.120Z,42.53
2018-10-17T07:52:39.247Z,35.83
2018-10-17T07:55:07.194Z,40.37
2018-10-17T07:57:34.027Z,42.07
2018-10-17T08:00:00.934Z,42.70
2018-10-17T08:02:27.715Z,47.78
2018-10-17T08:04:54.555Z,35.00
2018-10-17T08:07:21.426Z,40.45
2018-10-17T08:09:48.290Z,30.50
2018-10-17T08:12:15.229Z,38.13
2018-10-17T08:14:42.087Z,24.60
2018-10-17T08:17:09.310Z,34.23
2018-10-17T08:19:36.163Z,34.63
2018-10-17T08:22:03.374Z,34.67
2018-10-17T08:24:30.195Z,37.43
2018-10-17T08:26:57.059Z,29.83
2018-10-17T08:29:23.904Z,31.27
2018-10-17T08:31:50.747Z,31.42
2018-10-17T08:34:17.600Z,29.60
2018-10-17T08:36:44.776Z,31.50
2018-10-17T08:39:11.303Z,32.53
2018-10-17T08:41:38.126Z,31.42
2018-10-17T08:44:05.046Z,32.53
2018-10-17T08:46:31.859Z,27.83
2018-10-17T08:48:58.706Z,31.57
2018-10-17T08:51:25.555Z,29.40
2018-10-17T08:53:52.387Z,30.70
2018-10-17T08:56:19.255Z,32.33
2018-10-17T08:58:46.089Z,27.67
2018-10-17T09:01:12.931Z,28.00
2018-10-17T09:03:39.778Z,35.20
2018-10-17T09:06:06.720Z,28.40
2018-10-17T09:08:33.480Z,27.00
2018-10-17T09:11:00.334Z,28.35
2018-10-17T09:13:27.234Z,28.30
2018-10-17T09:15:54.030Z,26.87
2018-10-17T09:18:20.907Z,27.30
2018-10-17T09:20:48.002Z,24.13
2018-10-17T09:23:14.574Z,28.30
2018-10-17T09:25:41.416Z,26.50
2018-10-17T09:28:08.334Z,29.03
2018-10-17T09:30:35.146Z,28.80
2018-10-17T09:33:01.964Z,22.93
2018-10-17T09:35:28.859Z,25.10
2018-10-17T09:37:55.658Z,20.50
2018-10-17T09:40:22.506Z,24.17
2018-10-17T09:42:49.350Z,26.37
2018-10-17T09:45:16.196Z,24.97
2018-10-17T09:47:43.040Z,21.80
2018-10-17T09:50:10.404Z,25.83
2018-10-17T09:52:37.198Z,26.70
2018-10-17T09:55:04.487Z,23.27
2018-10-17T09:57:31.339Z,21.70
2018-10-17T09:59:58.191Z,24.07
2018-10-17T10:02:25.201Z,26.93
2018-10-17T10:04:51.875Z,20.63
2018-10-17T10:07:18.718Z,21.63
2018-10-17T10:09:45.559Z,24.92
2018-10-17T10:12:12.500Z,27.15
2018-10-17T10:17:20.106Z,25.35
2018-10-17T10:19:46.839Z,26.70
2018-10-17T10:22:13.714Z,26.77
2018-10-17T10:24:40.654Z,26.43
2018-10-17T10:27:07.538Z,27.20
2018-10-17T10:29:34.500Z,27.40
2018-10-17T10:32:01.335Z,23.90
2018-10-17T10:34:28.282Z,26.27
2018-10-17T10:36:55.215Z,33.00
2018-10-17T10:39:22.163Z,23.33
2018-10-17T10:41:49.098Z,25.13
2018-10-17T10:44:15.988Z,22.40
2018-10-17T10:46:42.887Z,27.57
2018-10-17T10:49:09.784Z,22.30
2018-10-17T10:51:36.761Z,26.50
2018-10-17T10:54:03.672Z,27.87
2018-10-17T10:56:30.585Z,23.30
2018-10-17T10:58:57.532Z,23.87
2018-10-17T11:01:24.446Z,28.90
2018-10-17T11:03:51.390Z,24.97
2018-10-17T11:06:18.235Z,25.80
2018-10-17T11:08:45.070Z,23.47
2018-10-17T11:11:11.965Z,27.47
2018-10-17T11:13:38.788Z,29.73
2018-10-17T11:16:06.255Z,28.03
2018-10-17T11:18:33.117Z,24.87
2018-10-17T11:21:00.000Z,21.90
2018-10-17T11:23:26.863Z,21.13
2018-10-17T11:25:53.730Z,24.60
2018-10-17T11:28:20.566Z,32.03
2018-10-17T11:30:48.542Z,31.63
2018-10-17T11:33:15.438Z,18.50
2018-10-17T11:35:42.233Z,17.60
2018-10-17T11:38:09.075Z,22.40
2018-10-17T11:40:35.996Z,22.33
2018-10-17T11:43:02.771Z,20.63
2018-10-17T11:45:29.630Z,26.70
2018-10-17T11:47:56.452Z,21.73
2018-10-17T11:50:23.360Z,22.10
2018-10-17T11:52:50.182Z,27.60
2018-10-17T11:55:17.071Z,18.57
2018-10-17T11:57:43.983Z,20.00
2018-10-17T12:00:12.154Z,20.27
2018-10-17T12:02:39.003Z,25.07
2018-10-17T12:05:08.546Z,24.03
2018-10-17T12:07:35.374Z,24.83
2018-10-17T12:10:02.457Z,16.40
2018-10-17T12:12:29.469Z,18.40
2018-10-17T12:14:56.469Z,18.87
2018-10-17T12:17:23.374Z,17.13
2018-10-17T12:19:50.335Z,16.03
2018-10-17T12:22:17.273Z,18.17
2018-10-17T12:24:44.216Z,19.93
2018-10-17T12:27:11.121Z,24.37
2018-10-17T12:29:38.096Z,18.77
2018-10-17T12:32:05.174Z,16.73
2018-10-17T12:34:32.114Z,14.97
2018-10-17T12:36:59.142Z,21.33
2018-10-17T12:39:26.119Z,18.80
2018-10-17T12:41:52.903Z,17.87
2018-10-17T12:44:19.930Z,20.23
2018-10-17T12:46:46.762Z,22.23
2018-10-17T12:49:13.846Z,15.90
2018-10-17T12:51:40.740Z,22.33
2018-10-17T12:54:07.632Z,21.52
2018-10-17T12:56:34.699Z,24.03
2018-10-17T12:59:01.684Z,20.50
2018-10-17T13:01:28.542Z,19.27
2018-10-17T13:03:55.503Z,18.83
2018-10-17T13:06:22.489Z,14.83
2018-10-17T13:08:49.377Z,15.17
2018-10-17T13:11:16.433Z,19.40
2018-10-17T13:13:43.170Z,19.10
2018-10-17T13:16:10.115Z,18.83
2018-10-17T13:18:37.083Z,20.77
2018-10-17T13:21:04.527Z,20.80
2018-10-17T13:23:31.536Z,18.90
2018-10-17T13:25:58.707Z,16.27
2018-10-17T13:28:25.551Z,15.63
2018-10-17T13:30:52.541Z,16.53
2018-10-17T13:33:19.546Z,17.83
2018-10-17T13:35:47.427Z,15.97
2018-10-17T13:38:14.351Z,17.07
2018-10-17T13:40:41.319Z,19.53
2018-10-17T13:43:08.310Z,16.97
2018-10-17T13:45:35.215Z,14.43
2018-10-17T13:48:02.148Z,19.30
2018-10-17T13:50:29.075Z,13.53
2018-10-17T13:52:56.040Z,18.67
2018-10-17T13:55:22.945Z,16.87
2018-10-17T13:57:49.915Z,15.87
2018-10-17T14:00:16.676Z,13.93
2018-10-17T14:02:43.999Z,13.03
2018-10-17T14:05:10.847Z,13.53
2018-10-17T14:07:37.795Z,10.50
2018-10-17T14:10:05.063Z,11.33
2018-10-17T14:12:32.055Z,12.53
2018-10-17T14:14:59.087Z,13.93
2018-10-17T14:17:25.903Z,9.63
2018-10-17T14:19:52.930Z,19.70
2018-10-17T14:22:19.887Z,15.90
2018-10-17T14:24:46.820Z,22.60
2018-10-17T14:27:13.860Z,11.40
2018-10-17T14:29:40.650Z,11.67
2018-10-17T14:32:07.547Z,12.77
2018-10-17T14:34:34.423Z,10.33
2018-10-17T14:37:01.333Z,12.07
2018-10-17T14:39:28.295Z,10.73
2018-10-17T14:41:55.021Z,16.37
2018-10-17T14:44:21.960Z,12.50
2018-10-17T14:46:48.814Z,12.63
2018-10-17T14:49:15.766Z,10.23
2018-10-17T14:51:42.717Z,13.37
2018-10-17T14:54:09.719Z,10.53
2018-10-17T14:56:36.595Z,14.80
2018-10-17T14:59:03.659Z,12.43
2018-10-17T15:01:30.555Z,16.20
2018-10-17T15:03:57.438Z,13.50
2018-10-17T15:06:24.366Z,15.53
2018-10-17T15:08:51.264Z,16.37
2018-10-17T15:11:18.279Z,12.93
2018-10-17T15:13:45.094Z,12.83
2018-10-17T15:16:11.951Z,15.60
2018-10-17T15:18:38.879Z,17.00
2018-10-17T15:21:05.803Z,17.70
2018-10-17T15:23:32.672Z,20.90
2018-10-17T15:25:59.511Z,27.17
2018-10-17T15:28:26.355Z,16.13
2018-10-17T15:30:53.302Z,19.23
2018-10-17T15:33:20.143Z,18.27
2018-10-17T15:35:46.988Z,18.47
2018-10-17T15:38:13.930Z,14.77
2018-10-17T15:40:40.787Z,19.27
2018-10-17T15:43:07.668Z,18.23
2018-10-17T15:45:34.478Z,17.30
2018-10-17T15:48:01.399Z,21.90
2018-10-17T15:50:29.274Z,16.30
2018-10-17T15:52:56.138Z,25.80
2018-10-17T15:55:22.979Z,17.20
2018-10-17T15:57:49.898Z,23.57
2018-10-17T16:00:17.859Z,16.43
2018-10-17T16:02:45.719Z,35.97
2018-10-17T16:05:12.494Z,25.13
2018-10-17T16:07:40.862Z,24.30
2018-10-17T16:10:08.119Z,16.60
2018-10-17T16:12:35.071Z,23.80
2018-10-17T16:15:01.991Z,25.60
2018-10-17T16:17:29.042Z,16.93
2018-10-17T16:19:55.921Z,22.63
2018-10-17T16:22:22.888Z,17.87
2018-10-17T16:24:49.783Z,22.87
2018-10-17T16:27:16.646Z,20.43
2018-10-17T16:29:43.543Z,23.30
2018-10-17T16:32:10.464Z,20.03
2018-10-17T16:34:37.255Z,22.07
2018-10-17T16:37:04.336Z,22.97
2018-10-17T16:39:31.255Z,25.80
2018-10-17T16:41:58.178Z,18.20
2018-10-17T16:44:25.003Z,21.23
2018-10-17T16:46:51.933Z,18.20
2018-10-17T16:49:18.803Z,16.33
2018-10-17T16:51:45.651Z,16.00
2018-10-17T16:54:12.600Z,21.40
2018-10-17T16:56:39.368Z,20.60
2018-10-17T16:59:06.218Z,16.60
2018-10-17T17:01:33.093Z,19.53
2018-10-17T17:04:00.021Z,19.33
2018-10-17T17:06:26.903Z,20.53
2018-10-17T17:08:53.781Z,27.87
2018-10-17T17:11:20.626Z,21.70
2018-10-17T17:13:47.475Z,19.50
2018-10-17T17:16:14.366Z,15.20
2018-10-17T17:18:41.214Z,23.67
2018-10-17T17:21:08.120Z,25.70
2018-10-17T17:23:34.928Z,31.93
2018-10-17T17:26:01.813Z,35.00
2018-10-17T17:28:28.678Z,39.20
2018-10-17T17:30:55.542Z,23.85
2018-10-17T17:33:22.390Z,20.53
2018-10-17T17:35:49.254Z,18.43
2018-10-17T17:38:16.127Z,19.00
2018-10-17T17:40:42.983Z,19.00
2018-10-17T17:43:09.854Z,19.97
2018-10-17T17:45:36.732Z,23.30
2018-10-17T17:48:03.607Z,21.73
2018-10-17T17:50:30.487Z,23.67
2018-10-17T17:52:57.364Z,19.23
2018-10-17T17:55:24.704Z,18.80
2018-10-17T17:57:51.664Z,17.43
2018-10-17T18:00:18.501Z,16.50
2018-10-17T18:02:45.364Z,21.27
2018-10-17T18:05:12.264Z,20.73
2018-10-17T18:07:39.131Z,18.13
2018-10-17T18:10:06.630Z,19.30
2018-10-17T18:12:37.232Z,18.90
2018-10-17T18:15:05.209Z,23.20
2018-10-17T18:17:32.071Z,23.13
2018-10-17T18:19:58.933Z,23.30
2018-10-17T18:22:25.869Z,20.77
2018-10-17T18:24:52.658Z,21.63
2018-10-17T18:27:19.595Z,23.00
2018-10-17T18:29:46.457Z,25.33
2018-10-17T18:32:13.315Z,24.60
2018-10-17T18:34:40.179Z,21.63
2018-10-17T18:37:07.107Z,25.07
2018-10-17T18:39:34.071Z,24.07
2018-10-17T18:42:00.956Z,24.77
2018-10-17T18:44:27.951Z,27.70
2018-10-17T18:46:55.810Z,22.97
2018-10-17T18:49:22.672Z,21.67
2018-10-17T18:51:49.539Z,20.23
2018-10-17T18:54:16.401Z,19.30
2018-10-17T18:56:43.281Z,18.50
2018-10-17T18:59:10.171Z,24.97
2018-10-17T19:01:37.149Z,22.73
2018-10-17T19:04:04.331Z,16.40
2018-10-17T19:06:31.186Z,18.50
2018-10-17T19:08:58.056Z,29.50
2018-10-17T19:11:24.930Z,21.90
2018-10-17T19:13:51.783Z,22.57
2018-10-17T19:16:18.685Z,22.77
2018-10-17T19:18:45.503Z,24.30
2018-10-17T19:21:12.433Z,17.90
2018-10-17T19:23:39.522Z,22.77
2018-10-17T19:26:06.420Z,24.73
2018-10-17T19:28:33.299Z,23.45
2018-10-17T19:31:00.173Z,24.00
2018-10-17T19:33:27.047Z,22.33
2018-10-17T19:35:53.962Z,17.90
2018-10-17T19:38:20.800Z,19.73
2018-10-17T19:40:47.920Z,25.40
2018-10-17T19:43:14.811Z,22.20
2018-10-17T19:45:41.648Z,27.37
2018-10-17T19:48:08.539Z,24.80
2018-10-17T19:50:35.454Z,19.03
2018-10-17T19:53:02.364Z,20.37
2018-10-17T19:55:29.215Z,23.43
2018-10-17T19:57:56.064Z,23.17
2018-10-17T20:00:22.971Z,30.07
2018-10-17T20:02:50.479Z,23.30
2018-10-17T20:05:17.340Z,18.50
2018-10-17T20:07:44.299Z,20.27
2018-10-17T20:10:11.123Z,27.93
2018-10-17T20:12:38.019Z,22.40
2018-10-17T20:15:05.596Z,24.50
2018-10-17T20:17:32.427Z,24.43
2018-10-17T20:19:59.279Z,32.17
2018-10-17T20:22:26.155Z,20.40
2018-10-17T20:24:53.089Z,22.20
2018-10-17T20:27:19.987Z,26.13
2018-10-17T20:29:46.855Z,22.07
2018-10-17T20:32:13.739Z,21.57
2018-10-17T20:34:40.599Z,22.80
2018-10-17T20:37:07.472Z,26.13
2018-10-17T20:39:34.327Z,22.30
2018-10-17T20:42:01.281Z,25.50
2018-10-17T20:44:28.412Z,23.30
2018-10-17T20:46:55.291Z,29.43
2018-10-17T20:49:22.148Z,24.33
2018-10-17T20:51:48.998Z,19.97
2018-10-17T20:54:15.858Z,22.80
2018-10-17T20:56:42.711Z,19.53
2018-10-17T20:59:09.618Z,19.57
2018-10-17T21:01:36.593Z,24.57
2018-10-17T21:04:03.496Z,23.27
2018-10-17T21:06:30.344Z,22.90
2018-10-17T21:08:57.195Z,25.87
2018-10-17T21:11:24.125Z,21.93
2018-10-17T21:13:50.919Z,20.60
2018-10-17T21:16:17.835Z,23.30
2018-10-17T21:18:44.765Z,27.90
2018-10-17T21:21:11.559Z,23.60
2018-10-17T21:23:38.423Z,30.60
2018-10-17T21:26:05.341Z,25.37
2018-10-17T21:28:32.206Z,24.50
2018-10-17T21:30:59.055Z,21.17
2018-10-17T21:33:25.911Z,23.80
2018-10-17T21:35:52.974Z,26.67
2018-10-17T21:38:19.962Z,28.20
2018-10-17T21:40:46.744Z,21.67
2018-10-17T21:43:13.607Z,32.87
2018-10-17T21:45:40.474Z,23.53
2018-10-17T21:48:07.335Z,27.50
2018-10-17T21:50:34.235Z,25.00
2018-10-17T21:53:01.101Z,31.70
2018-10-17T21:55:27.947Z,27.70
2018-10-17T21:57:54.816Z,30.40
2018-10-17T22:00:21.663Z,29.30
2018-10-17T22:02:48.531Z,33.13
2018-10-17T22:05:15.384Z,23.80
2018-10-17T22:07:42.247Z,25.30
2018-10-17T22:10:09.222Z,25.90
2018-10-17T22:12:36.264Z,23.70
2018-10-17T22:15:03.943Z,26.33
2018-10-17T22:17:30.812Z,29.20
2018-10-17T22:19:57.783Z,23.57
2018-10-17T22:22:25.039Z,26.33
2018-10-17T22:24:52.492Z,29.23
2018-10-17T22:27:19.571Z,24.23
2018-10-17T22:29:46.473Z,28.03
2018-10-17T22:32:14.341Z,30.03
2018-10-17T22:34:41.203Z,25.70
2018-10-17T22:37:08.079Z,26.20
2018-10-17T22:39:34.991Z,23.50
2018-10-17T22:42:01.843Z,25.47
2018-10-17T22:44:28.711Z,28.27
2018-10-17T22:46:55.575Z,31.20
2018-10-17T22:49:22.433Z,26.83
2018-10-17T22:51:49.300Z,28.30
2018-10-17T22:54:16.158Z,27.57
2018-10-17T22:56:43.015Z,27.77
2018-10-17T22:59:09.878Z,28.73
2018-10-17T23:01:37.251Z,31.40
2018-10-17T23:04:04.479Z,34.40
2018-10-17T23:06:31.331Z,30.53
2018-10-17T23:08:58.198Z,32.43
2018-10-17T23:11:25.071Z,34.20
2018-10-17T23:13:52.001Z,31.87
2018-10-17T23:16:18.859Z,26.93
2018-10-17T23:18:45.724Z,27.23
2018-10-17T23:21:12.611Z,32.67
2018-10-17T23:23:39.484Z,35.17
2018-10-17T23:26:06.741Z,31.77
2018-10-17T23:28:33.579Z,28.60
2018-10-17T23:31:01.424Z,27.83
2018-10-17T23:33:28.285Z,28.33
2018-10-17T23:35:55.138Z,28.53
2018-10-17T23:38:21.999Z,28.73
2018-10-17T23:40:48.861Z,29.27
2018-10-17T23:43:15.721Z,23.87
2018-10-17T23:45:43.602Z,29.60
2018-10-17T23:48:10.560Z,30.03
2018-10-17T23:50:37.979Z,29.80
2018-10-17T23:53:04.943Z,30.17
2018-10-17T23:55:31.813Z,27.00
2018-10-17T23:57:58.669Z,28.33
